createdAt,value
2022-07-30T00:00:25.084Z,961.86
2022-07-30T00:01:22.338Z,961.87
2022-07-30T00:02:22.254Z,961.89
2022-07-30T00:03:22.302Z,961.86
2022-07-30T00:04:22.239Z,961.85
2022-07-30T00:05:22.211Z,961.83
2022-07-30T00:06:22.230Z,961.86
2022-07-30T00:07:22.193Z,961.85
2022-07-30T00:08:22.184Z,961.88
2022-07-30T00:09:25.169Z,961.84
2022-07-30T00:10:22.171Z,961.87
2022-07-30T00:11:27.202Z,961.83
2022-07-30T00:12:22.168Z,961.87
2022-07-30T00:13:22.130Z,961.85
2022-07-30T00:14:22.122Z,961.86
2022-07-30T00:15:22.120Z,961.87
2022-07-30T00:16:22.173Z,961.90
2022-07-30T00:17:22.130Z,961.87
2022-07-30T00:18:22.454Z,961.88
2022-07-30T00:19:22.075Z,961.84
2022-07-30T00:20:22.061Z,961.88
2022-07-30T00:21:36.041Z,961.87
2022-07-30T00:22:22.033Z,961.89
2022-07-30T00:23:22.042Z,961.87
2022-07-30T00:24:25.014Z,961.84
2022-07-30T00:25:22.052Z,961.82
2022-07-30T00:26:21.991Z,961.84
2022-07-30T00:27:21.976Z,961.86
2022-07-30T00:28:21.964Z,961.86
2022-07-30T00:29:21.967Z,961.89
2022-07-30T00:30:21.957Z,961.85
2022-07-30T00:31:21.945Z,961.91
2022-07-30T00:32:21.938Z,961.90
2022-07-30T00:33:21.935Z,961.91
2022-07-30T00:34:21.905Z,961.91
2022-07-30T00:35:21.896Z,961.87
2022-07-30T00:36:21.887Z,961.91
2022-07-30T00:37:21.876Z,961.88
2022-07-30T00:38:21.878Z,961.90
2022-07-30T00:39:24.854Z,961.88
2022-07-30T00:40:21.968Z,961.89
2022-07-30T00:41:21.838Z,961.89
2022-07-30T00:42:21.830Z,961.92
2022-07-30T00:43:21.803Z,961.86
2022-07-30T00:44:21.799Z,961.88
2022-07-30T00:45:21.794Z,961.82
2022-07-30T00:46:21.823Z,961.81
2022-07-30T00:47:21.788Z,961.87
2022-07-30T00:48:21.762Z,961.86
2022-07-30T00:49:21.827Z,961.89
2022-07-30T00:50:21.738Z,961.89
2022-07-30T00:51:21.737Z,961.89
2022-07-30T00:52:21.742Z,961.87
2022-07-30T00:53:21.701Z,961.86
2022-07-30T00:54:24.702Z,961.91
2022-07-30T00:55:21.754Z,961.91
2022-07-30T00:56:21.680Z,961.88
2022-07-30T00:57:21.671Z,961.92
2022-07-30T00:58:21.695Z,961.92
2022-07-30T00:59:21.647Z,961.92
2022-07-30T01:00:21.640Z,961.93
2022-07-30T01:01:21.657Z,961.93
2022-07-30T01:02:21.685Z,961.93
2022-07-30T01:03:21.626Z,961.96
2022-07-30T01:04:21.597Z,961.97
2022-07-30T01:05:21.584Z,962.02
2022-07-30T01:06:21.605Z,961.99
2022-07-30T01:07:21.557Z,961.98
2022-07-30T01:08:21.569Z,961.96
2022-07-30T01:09:24.537Z,962.02
2022-07-30T01:10:21.547Z,962.02
2022-07-30T01:11:21.526Z,962.01
2022-07-30T01:12:21.522Z,962.00
2022-07-30T01:13:21.506Z,961.95
2022-07-30T01:14:21.489Z,961.96
2022-07-30T01:15:21.492Z,961.97
2022-07-30T01:16:21.511Z,961.97
2022-07-30T01:17:21.500Z,961.95
2022-07-30T01:18:21.449Z,961.96
2022-07-30T01:19:21.440Z,961.97
2022-07-30T01:20:21.429Z,961.96
2022-07-30T01:21:21.411Z,961.96
2022-07-30T01:22:21.400Z,962.01
2022-07-30T01:23:21.402Z,961.95
2022-07-30T01:24:24.393Z,961.99
2022-07-30T01:25:21.403Z,961.97
2022-07-30T01:26:21.364Z,961.96
2022-07-30T01:27:21.352Z,961.95
2022-07-30T01:28:21.359Z,961.93
2022-07-30T01:29:21.343Z,961.95
2022-07-30T01:30:21.325Z,961.92
2022-07-30T01:31:21.399Z,961.96
2022-07-30T01:32:21.306Z,961.94
2022-07-30T01:33:21.282Z,961.96
2022-07-30T01:34:21.295Z,961.99
2022-07-30T01:35:21.277Z,961.93
2022-07-30T01:36:21.290Z,961.91
2022-07-30T01:37:21.255Z,961.93
2022-07-30T01:38:21.244Z,961.94
2022-07-30T01:39:24.226Z,961.96
2022-07-30T01:40:21.243Z,961.96
2022-07-30T01:41:21.218Z,961.96
2022-07-30T01:42:21.206Z,961.92
2022-07-30T01:43:21.185Z,961.95
2022-07-30T01:44:23.955Z,961.99
2022-07-30T01:45:21.239Z,961.95
2022-07-30T01:46:21.190Z,961.95
2022-07-30T01:47:21.166Z,961.97
2022-07-30T01:48:21.142Z,961.96
2022-07-30T01:49:21.152Z,961.95
2022-07-30T01:50:21.124Z,961.89
2022-07-30T01:51:21.136Z,961.89
2022-07-30T01:52:21.090Z,961.90
2022-07-30T01:53:21.083Z,961.92
2022-07-30T01:54:24.090Z,961.89
2022-07-30T01:55:21.081Z,961.91
2022-07-30T01:56:24.927Z,961.90
2022-07-30T01:57:21.048Z,961.90
2022-07-30T01:58:21.047Z,961.91
2022-07-30T01:59:21.024Z,961.93
2022-07-30T02:00:21.012Z,961.93
2022-07-30T02:01:21.092Z,961.92
2022-07-30T02:02:20.993Z,961.91
2022-07-30T02:03:22.053Z,961.90
2022-07-30T02:04:20.973Z,961.86
2022-07-30T02:05:20.970Z,961.90
2022-07-30T02:06:20.951Z,961.93
2022-07-30T02:07:20.937Z,961.91
2022-07-30T02:08:20.925Z,961.93
2022-07-30T02:09:23.932Z,961.96
2022-07-30T02:10:20.929Z,961.93
2022-07-30T02:11:20.916Z,961.95
2022-07-30T02:12:20.887Z,961.93
2022-07-30T02:13:20.875Z,961.96
2022-07-30T02:14:20.868Z,961.92
2022-07-30T02:15:20.859Z,961.91
2022-07-30T02:16:20.981Z,961.95
2022-07-30T02:17:20.829Z,961.89
2022-07-30T02:18:23.674Z,961.88
2022-07-30T02:19:20.817Z,961.91
2022-07-30T02:20:25.229Z,961.88
2022-07-30T02:21:20.798Z,961.86
2022-07-30T02:22:20.793Z,961.86
2022-07-30T02:23:20.780Z,961.88
2022-07-30T02:24:23.760Z,961.85
2022-07-30T02:25:20.761Z,961.85
2022-07-30T02:26:20.740Z,961.84
2022-07-30T02:27:20.739Z,961.84
2022-07-30T02:28:20.730Z,961.81
2022-07-30T02:29:20.708Z,961.81
2022-07-30T02:30:20.695Z,961.78
2022-07-30T02:31:20.749Z,961.77
2022-07-30T02:32:20.691Z,961.75
2022-07-30T02:33:20.662Z,961.77
2022-07-30T02:34:20.654Z,961.77
2022-07-30T02:35:20.641Z,961.75
2022-07-30T02:36:20.726Z,961.76
2022-07-30T02:37:20.641Z,961.74
2022-07-30T02:38:21.618Z,961.73
2022-07-30T02:39:23.604Z,961.71
2022-07-30T02:40:20.614Z,961.71
2022-07-30T02:41:20.588Z,961.75
2022-07-30T02:42:21.614Z,961.73
2022-07-30T02:43:20.562Z,961.77
2022-07-30T02:44:20.553Z,961.76
2022-07-30T02:45:20.566Z,961.73
2022-07-30T02:46:20.620Z,961.71
2022-07-30T02:47:20.725Z,961.74
2022-07-30T02:48:34.440Z,961.75
2022-07-30T02:49:20.606Z,961.79
2022-07-30T02:50:20.487Z,961.79
2022-07-30T02:51:20.479Z,961.76
2022-07-30T02:52:20.467Z,961.80
2022-07-30T02:53:20.459Z,961.78
2022-07-30T02:54:23.461Z,961.79
2022-07-30T02:55:20.460Z,961.79
2022-07-30T02:56:20.433Z,961.82
2022-07-30T02:57:20.433Z,961.83
2022-07-30T02:58:20.429Z,961.84
2022-07-30T02:59:20.397Z,961.81
2022-07-30T03:00:20.381Z,961.83
2022-07-30T03:01:20.479Z,961.88
2022-07-30T03:02:27.196Z,961.85
2022-07-30T03:03:20.361Z,961.88
2022-07-30T03:04:20.341Z,961.88
2022-07-30T03:05:20.353Z,961.85
2022-07-30T03:06:20.330Z,961.86
2022-07-30T03:07:20.323Z,961.84
2022-07-30T03:08:20.311Z,961.87
2022-07-30T03:09:23.295Z,961.87
2022-07-30T03:10:20.334Z,961.85
2022-07-30T03:11:20.273Z,961.90
2022-07-30T03:12:20.263Z,961.89
2022-07-30T03:13:20.245Z,961.86
2022-07-30T03:14:20.248Z,961.87
2022-07-30T03:15:20.233Z,961.95
2022-07-30T03:16:20.287Z,961.89
2022-07-30T03:17:20.214Z,961.90
2022-07-30T03:18:20.195Z,961.93
2022-07-30T03:19:20.183Z,961.92
2022-07-30T03:20:20.183Z,961.92
2022-07-30T03:21:20.191Z,961.88
2022-07-30T03:22:20.157Z,961.92
2022-07-30T03:23:20.157Z,961.97
2022-07-30T03:24:23.136Z,961.98
2022-07-30T03:25:20.144Z,961.98
2022-07-30T03:26:20.058Z,962.01
2022-07-30T03:27:20.057Z,961.99
2022-07-30T03:28:20.037Z,961.99
2022-07-30T03:29:21.820Z,962.00
2022-07-30T03:30:20.022Z,962.01
2022-07-30T03:31:20.074Z,962.00
2022-07-30T03:32:20.040Z,962.04
2022-07-30T03:33:20.002Z,962.07
2022-07-30T03:34:19.984Z,962.06
2022-07-30T03:35:20.345Z,962.08
2022-07-30T03:36:19.951Z,962.08
2022-07-30T03:37:19.952Z,962.10
2022-07-30T03:38:19.941Z,962.08
2022-07-30T03:39:22.924Z,962.07
2022-07-30T03:40:19.951Z,962.09
2022-07-30T03:41:19.902Z,962.12
2022-07-30T03:42:19.953Z,962.07
2022-07-30T03:43:33.255Z,962.11
2022-07-30T03:44:19.883Z,962.08
2022-07-30T03:45:19.877Z,962.13
2022-07-30T03:46:20.003Z,962.06
2022-07-30T03:47:19.876Z,962.15
2022-07-30T03:48:19.835Z,962.16
2022-07-30T03:49:19.886Z,962.21
2022-07-30T03:50:19.817Z,962.20
2022-07-30T03:51:19.800Z,962.19
2022-07-30T03:52:19.789Z,962.25
2022-07-30T03:53:19.781Z,962.23
2022-07-30T03:54:22.777Z,962.25
2022-07-30T03:55:19.814Z,962.31
2022-07-30T03:56:19.750Z,962.31
2022-07-30T03:57:20.452Z,962.33
2022-07-30T03:58:19.736Z,962.29
2022-07-30T03:59:19.717Z,962.37
2022-07-30T04:00:19.707Z,962.35
2022-07-30T04:01:19.743Z,962.34
2022-07-30T04:02:19.690Z,962.36
2022-07-30T04:03:19.786Z,962.36
2022-07-30T04:04:19.669Z,962.40
2022-07-30T04:05:19.659Z,962.35
2022-07-30T04:06:19.640Z,962.36
2022-07-30T04:07:19.638Z,962.35
2022-07-30T04:08:19.646Z,962.35
2022-07-30T04:09:22.620Z,962.37
2022-07-30T04:10:19.734Z,962.36
2022-07-30T04:11:19.590Z,962.34
2022-07-30T04:12:20.581Z,962.34
2022-07-30T04:13:19.593Z,962.39
2022-07-30T04:14:19.563Z,962.39
2022-07-30T04:16:37.100Z,962.38
2022-07-30T04:16:41.523Z,962.37
2022-07-30T04:17:20.644Z,962.40
2022-07-30T04:18:19.544Z,962.40
2022-07-30T04:19:19.519Z,962.43
2022-07-30T04:20:19.539Z,962.40
2022-07-30T04:21:19.496Z,962.45
2022-07-30T04:22:19.487Z,962.43
2022-07-30T04:23:19.498Z,962.42
2022-07-30T04:24:22.464Z,962.40
2022-07-30T04:25:24.349Z,962.45
2022-07-30T04:26:19.464Z,962.41
2022-07-30T04:27:19.436Z,962.42
2022-07-30T04:28:19.448Z,962.38
2022-07-30T04:29:24.138Z,962.39
2022-07-30T04:30:19.423Z,962.39
2022-07-30T04:31:19.476Z,962.43
2022-07-30T04:32:19.377Z,962.43
2022-07-30T04:33:19.394Z,962.42
2022-07-30T04:34:19.347Z,962.44
2022-07-30T04:35:49.737Z,962.49
2022-07-30T04:36:20.339Z,962.45
2022-07-30T04:37:19.319Z,962.47
2022-07-30T04:38:19.340Z,962.50
2022-07-30T04:39:22.309Z,962.50
2022-07-30T04:40:19.310Z,962.52
2022-07-30T04:41:19.290Z,962.52
2022-07-30T04:42:19.270Z,962.55
2022-07-30T04:43:19.280Z,962.59
2022-07-30T04:44:19.251Z,962.57
2022-07-30T04:45:19.232Z,962.56
2022-07-30T04:46:19.305Z,962.63
2022-07-30T04:47:19.220Z,962.61
2022-07-30T04:48:19.212Z,962.64
2022-07-30T04:49:19.266Z,962.64
2022-07-30T04:50:19.199Z,962.65
2022-07-30T04:51:19.216Z,962.69
2022-07-30T04:52:19.177Z,962.67
2022-07-30T04:53:19.154Z,962.74
2022-07-30T04:54:22.153Z,962.76
2022-07-30T04:55:19.156Z,962.74
2022-07-30T04:56:19.199Z,962.75
2022-07-30T04:57:19.126Z,962.74
2022-07-30T04:58:19.110Z,962.77
2022-07-30T04:59:19.092Z,962.78
2022-07-30T05:00:19.238Z,962.75
2022-07-30T05:01:19.153Z,962.77
2022-07-30T05:02:20.084Z,962.78
2022-07-30T05:03:19.068Z,962.78
2022-07-30T05:04:19.048Z,962.80
2022-07-30T05:05:19.150Z,962.81
2022-07-30T05:06:19.064Z,962.80
2022-07-30T05:07:19.007Z,962.85
2022-07-30T05:08:19.007Z,962.82
2022-07-30T05:09:21.989Z,962.84
2022-07-30T05:10:19.001Z,962.82
2022-07-30T05:11:18.969Z,962.85
2022-07-30T05:12:18.958Z,962.86
2022-07-30T05:13:18.958Z,962.85
2022-07-30T05:14:19.969Z,962.86
2022-07-30T05:15:18.925Z,962.88
2022-07-30T05:16:19.992Z,962.91
2022-07-30T05:17:18.910Z,962.92
2022-07-30T05:18:18.922Z,962.89
2022-07-30T05:19:18.917Z,962.88
2022-07-30T05:20:18.880Z,962.90
2022-07-30T05:21:18.872Z,962.94
2022-07-30T05:22:18.861Z,962.93
2022-07-30T05:23:18.850Z,962.94
2022-07-30T05:24:21.852Z,962.97
2022-07-30T05:25:18.842Z,962.97
2022-07-30T05:26:18.852Z,962.94
2022-07-30T05:27:18.800Z,962.96
2022-07-30T05:28:18.794Z,962.95
2022-07-30T05:29:19.852Z,962.96
2022-07-30T05:30:18.773Z,962.98
2022-07-30T05:31:18.784Z,962.96
2022-07-30T05:32:18.754Z,962.98
2022-07-30T05:33:18.743Z,962.98
2022-07-30T05:34:18.737Z,963.02
2022-07-30T05:35:18.725Z,963.01
2022-07-30T05:36:18.713Z,962.96
2022-07-30T05:37:18.729Z,962.97
2022-07-30T05:38:18.693Z,962.96
2022-07-30T05:39:21.786Z,963.00
2022-07-30T05:40:18.698Z,962.95
2022-07-30T05:41:32.416Z,962.94
2022-07-30T05:42:18.647Z,962.94
2022-07-30T05:43:18.637Z,962.95
2022-07-30T05:44:22.162Z,962.94
2022-07-30T05:45:18.617Z,963.00
2022-07-30T05:46:18.651Z,962.99
2022-07-30T05:47:18.599Z,962.98
2022-07-30T05:48:18.589Z,962.98
2022-07-30T05:49:18.672Z,962.99
2022-07-30T05:50:18.564Z,962.98
2022-07-30T05:51:18.574Z,963.01
2022-07-30T05:52:18.550Z,963.04
2022-07-30T05:53:18.538Z,963.01
2022-07-30T05:54:21.557Z,962.98
2022-07-30T05:55:18.522Z,963.02
2022-07-30T05:56:18.507Z,963.04
2022-07-30T05:57:18.502Z,963.04
2022-07-30T05:58:18.484Z,963.11
2022-07-30T05:59:18.582Z,963.09
2022-07-30T06:00:18.465Z,963.10
2022-07-30T06:01:18.517Z,963.08
2022-07-30T06:02:18.453Z,963.13
2022-07-30T06:03:18.444Z,963.11
2022-07-30T06:04:18.488Z,963.13
2022-07-30T06:05:18.413Z,963.12
2022-07-30T06:06:22.716Z,963.17
2022-07-30T06:07:18.426Z,963.25
2022-07-30T06:08:18.386Z,963.16
2022-07-30T06:09:24.323Z,963.14
2022-07-30T06:10:19.379Z,963.20
2022-07-30T06:11:18.347Z,963.21
2022-07-30T06:12:18.338Z,963.15
2022-07-30T06:13:18.348Z,963.16
2022-07-30T06:14:18.317Z,963.15
2022-07-30T06:15:25.641Z,963.15
2022-07-30T06:16:18.354Z,963.14
2022-07-30T06:17:18.286Z,963.15
2022-07-30T06:18:18.287Z,963.15
2022-07-30T06:19:19.739Z,963.14
2022-07-30T06:20:18.259Z,963.13
2022-07-30T06:21:18.249Z,963.17
2022-07-30T06:22:20.740Z,963.15
2022-07-30T06:23:18.411Z,963.15
2022-07-30T06:24:21.209Z,963.15
2022-07-30T06:25:18.757Z,963.18
2022-07-30T06:26:18.208Z,963.17
2022-07-30T06:27:18.180Z,963.21
2022-07-30T06:29:19.159Z,963.20
2022-07-30T06:30:18.143Z,963.26
2022-07-30T06:31:19.192Z,963.21
2022-07-30T06:32:18.133Z,963.22
2022-07-30T06:33:18.121Z,963.27
2022-07-30T06:34:18.123Z,963.25
2022-07-30T06:35:18.103Z,963.24
2022-07-30T06:36:18.094Z,963.23
2022-07-30T06:37:18.073Z,963.24
2022-07-30T06:38:18.072Z,963.21
2022-07-30T06:39:53.828Z,963.26
2022-07-30T06:40:19.078Z,963.31
2022-07-30T06:41:18.072Z,963.28
2022-07-30T06:42:18.035Z,963.31
2022-07-30T06:43:18.015Z,963.30
2022-07-30T06:44:18.078Z,963.36
2022-07-30T06:45:18.000Z,963.28
2022-07-30T06:46:18.022Z,963.31
2022-07-30T06:47:18.018Z,963.32
2022-07-30T06:48:17.962Z,963.31
2022-07-30T06:49:18.001Z,963.31
2022-07-30T06:50:17.947Z,963.33
2022-07-30T06:51:17.930Z,963.32
2022-07-30T06:52:18.898Z,963.33
2022-07-30T06:53:17.921Z,963.30
2022-07-30T06:54:20.907Z,963.30
2022-07-30T06:55:17.926Z,963.29
2022-07-30T06:56:17.881Z,963.32
2022-07-30T06:57:17.867Z,963.35
2022-07-30T06:58:17.859Z,963.34
2022-07-30T06:59:17.850Z,963.37
2022-07-30T07:00:17.861Z,963.34
2022-07-30T07:01:17.968Z,963.34
2022-07-30T07:02:17.810Z,963.37
2022-07-30T07:03:17.817Z,963.41
2022-07-30T07:04:17.812Z,963.40
2022-07-30T07:05:17.801Z,963.40
2022-07-30T07:06:17.775Z,963.45
2022-07-30T07:07:37.087Z,963.47
2022-07-30T07:08:18.754Z,963.41
2022-07-30T07:09:20.745Z,963.42
2022-07-30T07:10:17.765Z,963.34
2022-07-30T07:11:17.755Z,963.44
2022-07-30T07:12:17.715Z,963.41
2022-07-30T07:13:17.695Z,963.41
2022-07-30T07:14:17.690Z,963.40
2022-07-30T07:15:17.699Z,963.42
2022-07-30T07:16:18.694Z,963.44
2022-07-30T07:17:17.709Z,963.46
2022-07-30T07:18:17.648Z,963.43
2022-07-30T07:19:59.991Z,963.45
2022-07-30T07:20:18.651Z,963.47
2022-07-30T07:21:17.712Z,963.50
2022-07-30T07:22:17.619Z,963.46
2022-07-30T07:23:19.687Z,963.46
2022-07-30T07:24:20.606Z,963.47
2022-07-30T07:25:17.589Z,963.45
2022-07-30T07:26:17.568Z,963.47
2022-07-30T07:27:17.562Z,963.45
2022-07-30T07:28:17.552Z,963.46
2022-07-30T07:29:17.542Z,963.46
2022-07-30T07:30:17.528Z,963.48
2022-07-30T07:32:07.441Z,963.49
2022-07-30T07:32:18.532Z,963.48
2022-07-30T07:33:17.491Z,963.43
2022-07-30T07:34:17.476Z,963.43
2022-07-30T07:35:17.474Z,963.47
2022-07-30T07:36:17.461Z,963.42
2022-07-30T07:37:17.473Z,963.47
2022-07-30T07:38:17.455Z,963.45
2022-07-30T07:39:20.436Z,963.42
2022-07-30T07:40:17.449Z,963.41
2022-07-30T07:41:17.415Z,963.43
2022-07-30T07:42:17.415Z,963.45
2022-07-30T07:43:17.394Z,963.37
2022-07-30T07:44:17.385Z,963.37
2022-07-30T07:45:17.369Z,963.38
2022-07-30T07:46:17.374Z,963.44
2022-07-30T07:47:18.369Z,963.43
2022-07-30T07:48:17.337Z,963.44
2022-07-30T07:49:17.355Z,963.41
2022-07-30T07:50:17.342Z,963.45
2022-07-30T07:51:17.318Z,963.45
2022-07-30T07:52:18.289Z,963.36
2022-07-30T07:53:17.279Z,963.39
2022-07-30T07:54:22.822Z,963.39
2022-07-30T07:55:17.300Z,963.38
2022-07-30T07:56:17.271Z,963.37
2022-07-30T07:57:17.270Z,963.37
2022-07-30T07:58:21.452Z,963.42
2022-07-30T07:59:17.266Z,963.41
2022-07-30T08:00:17.223Z,963.39
2022-07-30T08:01:17.247Z,963.33
2022-07-30T08:02:17.407Z,963.41
2022-07-30T08:03:17.182Z,963.43
2022-07-30T08:04:17.178Z,963.43
2022-07-30T08:05:17.162Z,963.42
2022-07-30T08:06:17.162Z,963.41
2022-07-30T08:07:17.142Z,963.43
2022-07-30T08:08:17.143Z,963.44
2022-07-30T08:09:20.126Z,963.47
2022-07-30T08:10:17.164Z,963.42
2022-07-30T08:11:17.123Z,963.42
2022-07-30T08:12:17.094Z,963.39
2022-07-30T08:13:48.112Z,963.43
2022-07-30T08:14:18.076Z,963.44
2022-07-30T08:15:21.535Z,963.41
2022-07-30T08:16:17.162Z,963.43
2022-07-30T08:17:17.102Z,963.45
2022-07-30T08:18:17.030Z,963.43
2022-07-30T08:19:17.018Z,963.43
2022-07-30T08:20:17.028Z,963.44
2022-07-30T08:21:17.047Z,963.46
2022-07-30T08:22:16.979Z,963.46
2022-07-30T08:23:16.979Z,963.43
2022-07-30T08:24:19.969Z,963.46
2022-07-30T08:25:21.718Z,963.45
2022-07-30T08:26:16.942Z,963.41
2022-07-30T08:27:16.942Z,963.42
2022-07-30T08:28:35.438Z,963.42
2022-07-30T08:29:17.911Z,963.44
2022-07-30T08:30:16.913Z,963.43
2022-07-30T08:31:16.891Z,963.39
2022-07-30T08:32:16.926Z,963.39
2022-07-30T08:33:16.872Z,963.39
2022-07-30T08:34:16.862Z,963.42
2022-07-30T08:35:16.864Z,963.43
2022-07-30T08:36:16.853Z,963.48
2022-07-30T08:37:16.831Z,963.41
2022-07-30T08:38:16.821Z,963.44
2022-07-30T08:39:19.814Z,963.44
2022-07-30T08:40:16.825Z,963.43
2022-07-30T08:41:16.793Z,963.46
2022-07-30T08:42:16.778Z,963.41
2022-07-30T08:43:16.786Z,963.44
2022-07-30T08:44:16.759Z,963.38
2022-07-30T08:45:16.748Z,963.38
2022-07-30T08:46:16.739Z,963.37
2022-07-30T08:47:16.737Z,963.40
2022-07-30T08:48:16.944Z,963.40
2022-07-30T08:49:16.736Z,963.40
2022-07-30T08:50:17.141Z,963.39
2022-07-30T08:51:16.684Z,963.42
2022-07-30T08:52:16.671Z,963.38
2022-07-30T08:53:16.667Z,963.40
2022-07-30T08:54:19.653Z,963.41
2022-07-30T08:55:16.703Z,963.38
2022-07-30T08:56:16.635Z,963.40
2022-07-30T08:57:16.631Z,963.40
2022-07-30T08:58:18.157Z,963.39
2022-07-30T08:59:16.604Z,963.40
2022-07-30T09:00:16.595Z,963.44
2022-07-30T09:01:16.580Z,963.44
2022-07-30T09:02:16.594Z,963.41
2022-07-30T09:03:16.564Z,963.45
2022-07-30T09:04:16.558Z,963.44
2022-07-30T09:05:16.545Z,963.42
2022-07-30T09:06:16.527Z,963.41
2022-07-30T09:07:16.514Z,963.41
2022-07-30T09:08:17.827Z,963.39
2022-07-30T09:09:19.508Z,963.43
2022-07-30T09:10:16.512Z,963.42
2022-07-30T09:11:16.489Z,963.39
2022-07-30T09:12:16.475Z,963.34
2022-07-30T09:13:16.476Z,963.29
2022-07-30T09:14:16.449Z,963.30
2022-07-30T09:15:16.447Z,963.30
2022-07-30T09:17:16.412Z,963.34
2022-07-30T09:18:16.400Z,963.39
2022-07-30T09:19:16.398Z,963.32
2022-07-30T09:20:16.392Z,963.37
2022-07-30T09:21:16.372Z,963.36
2022-07-30T09:22:16.361Z,963.38
2022-07-30T09:23:16.370Z,963.38
2022-07-30T09:24:19.343Z,963.37
2022-07-30T09:25:16.358Z,963.38
2022-07-30T09:26:16.333Z,963.37
2022-07-30T09:27:16.320Z,963.37
2022-07-30T09:28:17.065Z,963.41
2022-07-30T09:29:16.294Z,963.43
2022-07-30T09:30:16.285Z,963.37
2022-07-30T09:31:16.305Z,963.32
2022-07-30T09:32:16.261Z,963.38
2022-07-30T09:33:16.249Z,963.32
2022-07-30T09:34:16.259Z,963.37
2022-07-30T09:35:16.226Z,963.35
2022-07-30T09:36:16.289Z,963.34
2022-07-30T09:37:16.208Z,963.36
2022-07-30T09:38:16.199Z,963.32
2022-07-30T09:39:19.198Z,963.34
2022-07-30T09:40:16.261Z,963.30
2022-07-30T09:41:37.578Z,963.31
2022-07-30T09:42:17.152Z,963.29
2022-07-30T09:43:16.140Z,963.27
2022-07-30T09:44:17.142Z,963.24
2022-07-30T09:45:16.127Z,963.24
2022-07-30T09:46:16.160Z,963.28
2022-07-30T09:47:16.100Z,963.26
2022-07-30T09:48:16.089Z,963.27
2022-07-30T09:49:16.184Z,963.29
2022-07-30T09:50:17.883Z,963.25
2022-07-30T09:51:16.206Z,963.27
2022-07-30T09:52:16.054Z,963.28
2022-07-30T09:53:16.043Z,963.25
2022-07-30T09:54:19.034Z,963.25
2022-07-30T09:55:16.059Z,963.27
2022-07-30T09:56:16.005Z,963.26
2022-07-30T09:57:25.851Z,963.28
2022-07-30T09:58:20.025Z,963.29
2022-07-30T09:59:18.449Z,963.27
2022-07-30T10:00:16.080Z,963.26
2022-07-30T10:01:15.957Z,963.26
2022-07-30T10:02:15.984Z,963.28
2022-07-30T10:03:33.184Z,963.25
2022-07-30T10:04:16.927Z,963.28
2022-07-30T10:05:15.921Z,963.29
2022-07-30T10:06:15.909Z,963.28
2022-07-30T10:07:15.899Z,963.23
2022-07-30T10:08:16.608Z,963.25
2022-07-30T10:09:18.882Z,963.23
2022-07-30T10:10:15.894Z,963.21
2022-07-30T10:11:15.885Z,963.22
2022-07-30T10:12:15.853Z,963.22
2022-07-30T10:13:19.125Z,963.26
2022-07-30T10:14:15.905Z,963.23
2022-07-30T10:15:15.818Z,963.21
2022-07-30T10:16:15.812Z,963.23
2022-07-30T10:17:17.288Z,963.21
2022-07-30T10:18:15.783Z,963.23
2022-07-30T10:19:19.223Z,963.22
2022-07-30T10:20:16.765Z,963.24
2022-07-30T10:21:16.958Z,963.22
2022-07-30T10:22:17.169Z,963.18
2022-07-30T10:23:16.072Z,963.22
2022-07-30T10:24:19.740Z,963.14
2022-07-30T10:25:16.220Z,963.09
2022-07-30T10:26:17.286Z,963.08
2022-07-30T10:27:15.699Z,963.06
2022-07-30T10:28:15.689Z,963.10
2022-07-30T10:29:16.040Z,963.03
2022-07-30T10:30:15.681Z,963.06
2022-07-30T10:31:49.390Z,963.12
2022-07-30T10:32:16.639Z,963.06
2022-07-30T10:33:36.166Z,963.11
2022-07-30T10:34:16.623Z,963.08
2022-07-30T10:35:34.768Z,963.02
2022-07-30T10:36:16.603Z,963.02
2022-07-30T10:37:15.591Z,962.98
2022-07-30T10:38:15.584Z,962.99
2022-07-30T10:39:18.571Z,962.96
2022-07-30T10:40:15.591Z,962.98
2022-07-30T10:41:15.554Z,962.99
2022-07-30T10:42:15.536Z,963.01
2022-07-30T10:43:16.037Z,962.96
2022-07-30T10:44:15.828Z,962.99
2022-07-30T10:45:17.713Z,963.01
2022-07-30T10:46:22.191Z,962.95
2022-07-30T10:47:15.488Z,962.89
2022-07-30T10:48:15.506Z,962.90
2022-07-30T10:49:17.493Z,962.93
2022-07-30T10:50:15.524Z,962.91
2022-07-30T10:51:18.620Z,962.90
2022-07-30T10:52:16.437Z,962.91
2022-07-30T10:53:15.428Z,962.91
2022-07-30T10:54:18.419Z,962.92
2022-07-30T10:55:15.776Z,962.92
2022-07-30T10:56:16.400Z,962.92
2022-07-30T10:57:22.645Z,962.93
2022-07-30T10:58:17.972Z,962.96
2022-07-30T10:59:15.371Z,962.96
2022-07-30T11:00:17.607Z,962.98
2022-07-30T11:01:18.594Z,962.93
2022-07-30T11:02:15.333Z,963.01
2022-07-30T11:03:15.841Z,963.02
2022-07-30T11:04:15.343Z,962.96
2022-07-30T11:05:15.411Z,962.95
2022-07-30T11:06:16.293Z,962.95
2022-07-30T11:07:17.427Z,962.89
2022-07-30T11:08:15.267Z,962.93
2022-07-30T11:09:18.293Z,963.02
2022-07-30T11:10:15.264Z,962.92
2022-07-30T11:11:19.679Z,962.92
2022-07-30T11:12:16.598Z,962.86
2022-07-30T11:13:15.218Z,962.90
2022-07-30T11:14:15.236Z,962.92
2022-07-30T11:15:17.433Z,962.93
2022-07-30T11:16:15.207Z,962.97
2022-07-30T11:17:15.168Z,962.91
2022-07-30T11:18:15.218Z,962.91
2022-07-30T11:19:56.988Z,962.85
2022-07-30T11:20:16.182Z,962.86
2022-07-30T11:21:15.232Z,962.99
2022-07-30T11:22:15.130Z,962.93
2022-07-30T11:23:15.119Z,962.89
2022-07-30T11:24:18.113Z,962.88
2022-07-30T11:25:15.114Z,962.85
2022-07-30T11:26:15.093Z,962.84
2022-07-30T11:27:15.114Z,962.78
2022-07-30T11:28:15.076Z,962.85
2022-07-30T11:29:15.056Z,962.89
2022-07-30T11:30:15.055Z,962.87
2022-07-30T11:31:15.036Z,962.94
2022-07-30T11:32:16.214Z,962.93
2022-07-30T11:33:15.016Z,962.93
2022-07-30T11:34:15.024Z,962.88
2022-07-30T11:35:14.996Z,962.89
2022-07-30T11:36:14.997Z,962.90
2022-07-30T11:37:18.533Z,962.89
2022-07-30T11:38:18.903Z,962.91
2022-07-30T11:39:17.958Z,962.96
2022-07-30T11:40:14.965Z,962.98
2022-07-30T11:41:15.967Z,962.96
2022-07-30T11:42:14.927Z,962.91
2022-07-30T11:43:14.930Z,962.94
2022-07-30T11:44:14.925Z,962.91
2022-07-30T11:45:14.899Z,962.92
2022-07-30T11:46:16.513Z,962.90
2022-07-30T11:47:15.882Z,962.87
2022-07-30T11:48:14.864Z,962.90
2022-07-30T11:49:14.923Z,962.89
2022-07-30T11:50:14.851Z,962.89
2022-07-30T11:51:14.841Z,962.90
2022-07-30T11:52:14.823Z,962.90
2022-07-30T11:53:14.822Z,962.91
2022-07-30T11:54:17.845Z,962.88
2022-07-30T11:55:14.815Z,962.85
2022-07-30T11:56:14.903Z,962.85
2022-07-30T11:57:14.778Z,962.89
2022-07-30T11:58:14.764Z,962.92
2022-07-30T11:59:14.757Z,962.90
2022-07-30T12:00:14.749Z,962.90
2022-07-30T12:01:14.745Z,962.91
2022-07-30T12:02:14.718Z,962.86
2022-07-30T12:03:14.722Z,962.88
2022-07-30T12:04:14.699Z,962.86
2022-07-30T12:05:14.709Z,962.85
2022-07-30T12:06:14.690Z,962.81
2022-07-30T12:07:14.669Z,962.85
2022-07-30T12:08:35.091Z,962.81
2022-07-30T12:09:18.649Z,962.81
2022-07-30T12:10:14.675Z,962.81
2022-07-30T12:11:15.655Z,962.80
2022-07-30T12:12:14.621Z,962.80
2022-07-30T12:13:14.623Z,962.80
2022-07-30T12:14:14.613Z,962.80
2022-07-30T12:15:14.593Z,962.79
2022-07-30T12:16:14.692Z,962.75
2022-07-30T12:17:15.215Z,962.81
2022-07-30T12:18:26.225Z,962.78
2022-07-30T12:19:14.547Z,962.83
2022-07-30T12:20:14.548Z,962.82
2022-07-30T12:21:14.535Z,962.88
2022-07-30T12:22:14.546Z,962.82
2022-07-30T12:23:14.495Z,962.86
2022-07-30T12:24:17.508Z,962.83
2022-07-30T12:25:14.507Z,962.77
2022-07-30T12:26:14.493Z,962.75
2022-07-30T12:27:14.497Z,962.70
2022-07-30T12:28:14.459Z,962.71
2022-07-30T12:29:14.447Z,962.70
2022-07-30T12:30:14.451Z,962.73